Time;durP1;ratioP1;P1;durP2;ratioP2;P2;SDS_P1;SDS_P2;PMS_P1;PMS_P2;Temp;Humidity;BMP_temperature;BMP_pressure;BME280_temperature;BME280_humidity;BME280_pressure;Samples;Min_cycle;Max_cycle;Signal;HPM_P1;HPM_P2
2021/05/31 00:00:30;;;;;;;5.30;4.80;;;;;;;9.42;76.36;100013.09;5008556;28;20244;-81
2021/05/31 00:02:56;;;;;;;5.27;4.73;;;;;;;9.35;76.27;99998.88;5008308;28;20234;-81
2021/05/31 00:05:25;;;;;;;4.87;4.47;;;;;;;9.43;76.05;100015.56;4974280;28;20306;-80
2021/05/31 00:07:54;;;;;;;5.23;4.83;;;;;;;9.39;76.13;100008.16;5005763;28;20258;-81
2021/05/31 00:10:23;;;;;;;4.80;4.40;;;;;;;9.37;76.42;100000.34;5004648;28;20314;-82
2021/05/31 00:12:50;;;;;;;4.93;4.53;;;;;;;9.42;75.93;99994.38;4972980;28;20235;-81
2021/05/31 00:15:18;;;;;;;5.57;4.87;;;;;;;9.45;75.90;100010.84;4973463;28;20318;-82
2021/05/31 00:17:45;;;;;;;4.80;4.40;;;;;;;9.52;74.77;99995.63;5006064;28;20302;-81
2021/05/31 00:20:13;;;;;;;5.17;4.67;;;;;;;9.64;74.00;100002.03;4991251;28;20317;-80
2021/05/31 00:22:40;;;;;;;4.93;4.50;;;;;;;9.68;74.44;100010.47;4988261;28;20310;-81
2021/05/31 00:25:08;;;;;;;5.33;4.57;;;;;;;9.63;75.02;100003.06;4986905;28;20290;-82
2021/05/31 00:27:36;;;;;;;5.90;4.33;;;;;;;9.71;75.22;100010.88;4989973;28;20226;-80
2021/05/31 00:30:07;;;;;;;4.53;4.13;;;;;;;9.73;75.20;99998.13;5006504;28;20222;-80
2021/05/31 00:32:34;;;;;;;4.87;4.47;;;;;;;9.74;74.85;99993.59;4989346;28;20599;-81
2021/05/31 00:35:02;;;;;;;5.27;4.77;;;;;;;9.73;74.64;99989.28;4972607;28;20230;-82
2021/05/31 00:37:29;;;;;;;4.60;4.20;;;;;;;9.71;73.96;99994.81;4987689;28;20224;-81
2021/05/31 00:39:55;;;;;;;5.00;4.60;;;;;;;9.78;73.85;99988.66;4968272;28;20240;-81
2021/05/31 00:42:23;;;;;;;4.50;4.10;;;;;;;9.78;73.65;99988.66;4982505;28;20239;-80
2021/05/31 00:44:51;;;;;;;4.63;4.23;;;;;;;9.74;73.58;99990.94;4967463;28;20235;-82
2021/05/31 00:47:18;;;;;;;4.90;4.50;;;;;;;9.72;73.85;99983.09;4996659;28;20306;-80
2021/05/31 00:49:45;;;;;;;4.57;4.17;;;;;;;9.66;73.86;99975.88;4986247;28;20291;-80
2021/05/31 00:52:12;;;;;;;4.63;4.20;;;;;;;9.59;73.79;99974.25;4993369;28;20315;-80
2021/05/31 00:54:39;;;;;;;4.30;3.90;;;;;;;9.54;73.64;99964.16;4984072;28;20232;-81
2021/05/31 00:57:06;;;;;;;4.90;4.50;;;;;;;9.50;73.45;99975.47;4995234;28;20246;-81
2021/05/31 00:59:35;;;;;;;4.70;4.30;;;;;;;9.42;74.00;99973.81;4972413;28;20246;-81
2021/05/31 01:02:03;;;;;;;5.00;4.60;;;;;;;9.40;74.19;99981.22;4993488;28;20231;-81
2021/05/31 01:04:29;;;;;;;4.57;4.17;;;;;;;9.38;73.98;99979.78;4966630;28;20283;-80
2021/05/31 01:07:20;;;;;;;4.57;4.17;;;;;;;9.26;74.31;99979.53;4976482;28;20247;-81
2021/05/31 01:10:03;;;;;;;5.03;4.63;;;;;;;9.23;74.90;99977.28;5001919;28;20306;-80
2021/05/31 01:12:42;;;;;;;4.67;4.30;;;;;;;9.23;74.74;99971.94;4987479;28;20730;-82
2021/05/31 01:15:23;;;;;;;5.10;4.20;;;;;;;9.14;75.37;99962.44;5003195;28;20231;-83
2021/05/31 01:18:05;;;;;;;6.03;4.37;;;;;;;9.05;76.22;99963.66;4975715;28;20223;-81
2021/05/31 01:21:05;;;;;;;4.83;4.43;;;;;;;9.03;76.29;99969.19;4967913;28;20228;-81
2021/05/31 01:23:36;;;;;;;4.63;4.23;;;;;;;8.90;76.78;99954.97;5003382;28;20861;-81
2021/05/31 01:26:13;;;;;;;5.00;4.50;;;;;;;8.93;77.28;99967.94;5003169;28;20232;-80
2021/05/31 01:28:46;;;;;;;5.37;4.80;;;;;;;8.86;77.18;99967.09;4985333;28;20580;-81
2021/05/31 01:31:16;;;;;;;5.37;4.90;;;;;;;8.83;77.73;99960.28;4986656;28;20475;-83
2021/05/31 01:33:51;;;;;;;5.30;4.80;;;;;;;8.71;77.38;99943.19;5002917;28;20597;-81
2021/05/31 01:36:20;;;;;;;5.57;5.13;;;;;;;8.73;77.74;99965.19;4986708;28;20634;-81
2021/05/31 01:38:49;;;;;;;5.73;5.23;;;;;;;8.69;77.76;99958.59;5008707;28;20239;-82
2021/05/31 01:41:17;;;;;;;5.53;4.97;;;;;;;8.72;78.06;99961.72;4991562;28;20223;-80
2021/05/31 01:43:46;;;;;;;4.50;4.20;;;;;;;8.70;78.23;99957.56;4989794;28;20227;-81
2021/05/31 01:46:13;;;;;;;5.30;4.80;;;;;;;8.67;78.07;99964.16;4971465;28;20238;-80
2021/05/31 01:48:44;;;;;;;5.47;5.07;;;;;;;8.64;78.16;99947.69;5004052;28;20235;-81
2021/05/31 01:51:13;;;;;;;5.53;5.03;;;;;;;8.70;77.75;99955.72;4991101;23;20322;-82
2021/05/31 01:53:40;;;;;;;5.03;4.53;;;;;;;8.71;78.07;99953.88;4966895;28;20234;-80
2021/05/31 01:56:08;;;;;;;4.90;4.50;;;;;;;8.77;77.67;99951.22;4967786;28;20241;-82
2021/05/31 01:58:38;;;;;;;4.93;4.53;;;;;;;8.75;77.63;99950.63;4969556;28;20232;-81
2021/05/31 02:01:08;;;;;;;5.20;4.80;;;;;;;8.73;77.72;99946.47;4966340;28;20233;-81
2021/05/31 02:03:36;;;;;;;4.97;4.53;;;;;;;8.82;77.40;99943.44;4964008;29;20237;-82
2021/05/31 02:06:04;;;;;;;5.03;4.63;;;;;;;8.84;77.57;99941.41;4961647;28;21076;-80
2021/05/31 02:08:33;;;;;;;4.80;4.40;;;;;;;8.91;77.37;99948.63;4978372;28;20238;-81
2021/05/31 02:11:13;;;;;;;5.03;4.63;;;;;;;8.94;77.58;99950.88;4969405;28;20656;-81
2021/05/31 02:13:43;;;;;;;5.67;5.17;;;;;;;8.91;77.72;99946.78;4984560;28;20239;-81
2021/05/31 02:16:19;;;;;;;5.10;4.60;;;;;;;8.98;77.37;99944.09;4985412;28;20216;-81
2021/05/31 02:18:51;;;;;;;5.40;4.90;;;;;;;9.03;77.75;99947.81;4968910;28;20231;-81
2021/05/31 02:21:20;;;;;;;4.97;4.53;;;;;;;9.05;77.87;99950.31;4979956;28;20252;-81
2021/05/31 02:23:48;;;;;;;5.33;4.93;;;;;;;9.03;77.77;99953.16;4976968;28;20237;-80
2021/05/31 02:26:17;;;;;;;5.07;4.57;;;;;;;9.05;77.90;99939.63;4979379;28;20224;-81
2021/05/31 02:28:46;;;;;;;5.00;4.60;;;;;;;9.01;77.72;99936.50;4976500;28;20228;-81
2021/05/31 02:31:17;;;;;;;5.93;4.87;;;;;;;9.11;77.01;99942.28;4982786;28;20232;-82
2021/05/31 02:33:46;;;;;;;5.37;4.63;;;;;;;9.06;77.03;99935.88;4970400;28;20281;-81
2021/05/31 02:36:13;;;;;;;5.27;4.87;;;;;;;9.09;77.19;99941.69;4945994;28;20213;-80
2021/05/31 02:38:41;;;;;;;5.13;4.63;;;;;;;9.07;76.75;99933.03;4959027;28;20231;-82
2021/05/31 02:41:09;;;;;;;5.50;5.00;;;;;;;9.11;76.90;99942.28;4984085;28;20238;-80
2021/05/31 02:43:36;;;;;;;5.53;5.03;;;;;;;9.06;77.04;99931.38;4982309;28;20224;-81
2021/05/31 02:46:04;;;;;;;5.10;4.60;;;;;;;9.13;76.53;99940.25;4965715;28;20712;-81
2021/05/31 02:48:32;;;;;;;5.20;4.77;;;;;;;9.13;76.77;99940.25;4984842;28;20231;-83
2021/05/31 02:50:58;;;;;;;5.30;4.80;;;;;;;9.10;77.02;99931.78;4982177;28;20290;-83
2021/05/31 02:53:26;;;;;;;5.50;4.80;;;;;;;9.09;77.08;99924.81;4982663;28;20240;-81
2021/05/31 02:55:53;;;;;;;6.10;4.70;;;;;;;9.16;77.21;99928.31;4966343;28;20223;-83
2021/05/31 02:58:20;;;;;;;5.20;4.80;;;;;;;9.07;76.77;99918.84;4983398;28;20255;-80
2021/05/31 03:00:48;;;;;;;5.70;5.20;;;;;;;9.07;76.95;99917.00;4983111;28;20248;-81
2021/05/31 03:03:15;;;;;;;5.03;4.63;;;;;;;9.13;77.12;99926.88;4981898;28;20227;-80
2021/05/31 03:05:41;;;;;;;5.13;4.70;;;;;;;9.13;77.26;99926.06;4964500;28;20232;-81
2021/05/31 03:08:08;;;;;;;5.17;4.77;;;;;;;9.03;76.87;99910.41;4947248;28;20227;-81
2021/05/31 03:10:35;;;;;;;5.40;4.97;;;;;;;9.09;76.95;99931.00;4947286;29;20546;-80
2021/05/31 03:13:03;;;;;;;5.50;5.00;;;;;;;9.03;76.94;99922.94;4964192;29;20271;-81
2021/05/31 03:15:31;;;;;;;5.40;4.97;;;;;;;8.97;76.54;99907.72;4963172;29;20244;-81
2021/05/31 03:17:58;;;;;;;5.73;5.23;;;;;;;9.00;77.04;99926.84;4963134;29;20228;-81
2021/05/31 03:20:27;;;;;;;5.13;4.73;;;;;;;8.99;77.18;99929.72;4980545;28;20235;-81
2021/05/31 03:22:55;;;;;;;5.00;4.60;;;;;;;8.98;77.41;99926.22;4984800;28;20236;-81
2021/05/31 03:29:05;;;;;;;5.37;4.90;;;;;;;8.88;77.29;99919.59;4980615;28;20236;-81
2021/05/31 03:31:31;;;;;;;5.37;4.97;;;;;;;8.91;76.87;99920.06;4966531;28;20228;-82
2021/05/31 03:33:58;;;;;;;5.60;5.10;;;;;;;8.98;76.33;99923.56;4972741;28;20232;-81
2021/05/31 03:36:25;;;;;;;4.90;4.40;;;;;;;9.00;76.53;99916.16;4970094;28;20288;-81
2021/05/31 03:38:52;;;;;;;5.40;4.90;;;;;;;9.07;76.49;99926.84;4985448;28;20232;-82
2021/05/31 03:41:19;;;;;;;4.80;4.40;;;;;;;9.10;76.67;99926.44;4984546;28;20231;-80
2021/05/31 03:43:47;;;;;;;5.83;5.33;;;;;;;9.10;76.85;99927.25;4968020;28;20529;-80
2021/05/31 03:46:15;;;;;;;6.13;4.70;;;;;;;9.22;76.45;99932.84;4984815;28;20236;-81
2021/05/31 03:48:42;;;;;;;5.23;4.83;;;;;;;9.32;76.50;99929.78;4970279;28;20228;-83
2021/05/31 03:51:10;;;;;;;5.53;5.03;;;;;;;9.39;75.98;99926.06;4963995;29;20232;-80
2021/05/31 03:53:38;;;;;;;5.63;5.10;;;;;;;9.55;75.38;99936.38;4966528;28;20279;-81
2021/05/31 03:56:07;;;;;;;5.20;4.80;;;;;;;9.59;75.19;99934.94;4965394;28;20236;-81
2021/05/31 03:58:35;;;;;;;5.07;4.57;;;;;;;9.72;74.68;99924.22;4951057;29;20522;-83
2021/05/31 04:01:03;;;;;;;5.33;4.93;;;;;;;9.84;74.96;99927.13;4986834;28;20232;-81
2021/05/31 04:03:30;;;;;;;5.77;5.27;;;;;;;10.01;75.16;99938.19;4988714;28;20208;-83
2021/05/31 04:13:55;;;;;;;5.30;4.80;;;;;;;10.51;74.69;99929.44;4988483;28;20244;-81
2021/05/31 04:16:22;;;;;;;6.13;5.23;;;;;;;10.63;73.75;99921.59;4987272;28;20259;-82
2021/05/31 04:18:49;;;;;;;5.30;4.83;;;;;;;10.84;73.42;99917.75;4988517;28;20232;-81
2021/05/31 04:21:19;;;;;;;5.53;5.03;;;;;;;11.03;72.93;99916.81;4972159;28;20678;-81
2021/05/31 04:23:48;;;;;;;5.27;4.77;;;;;;;11.26;72.44;99918.94;4988258;28;20260;-81
2021/05/31 04:26:15;;;;;;;5.03;4.63;;;;;;;11.99;70.47;99914.63;4986792;28;20255;-81
2021/05/31 04:28:42;;;;;;;5.13;4.63;;;;;;;12.71;67.51;99915.69;4987038;28;20232;-82
2021/05/31 04:31:10;;;;;;;4.37;4.07;;;;;;;12.76;66.16;99899.69;4973929;28;20233;-79
2021/05/31 04:33:37;;;;;;;5.10;4.50;;;;;;;12.82;65.65;99917.63;4970721;29;20217;-83
2021/05/31 04:36:05;;;;;;;6.00;4.53;;;;;;;12.90;65.52;99928.06;4982782;28;20236;-80
2021/05/31 04:38:35;;;;;;;4.80;4.40;;;;;;;12.82;66.38;99917.63;4987202;28;20228;-81
2021/05/31 04:41:04;;;;;;;4.93;4.43;;;;;;;12.72;65.21;99904.72;4977071;28;20291;-81
2021/05/31 04:43:33;;;;;;;4.73;4.33;;;;;;;12.68;66.42;99916.97;4969491;29;20283;-81
2021/05/31 04:45:59;;;;;;;5.03;4.53;;;;;;;12.71;65.92;99911.13;4980197;28;20220;-80
2021/05/31 04:48:30;;;;;;;4.83;4.40;;;;;;;12.83;65.82;99913.88;4986870;28;20292;-80
2021/05/31 04:50:57;;;;;;;5.20;3.90;;;;;;;13.13;64.68;99906.66;4975581;28;20251;-80
2021/05/31 04:53:26;;;;;;;4.57;4.13;;;;;;;13.09;63.84;99915.38;4988308;28;20651;-79
2021/05/31 04:55:54;;;;;;;4.37;3.90;;;;;;;13.12;63.99;99907.69;4980908;28;20225;-82
2021/05/31 04:58:22;;;;;;;5.03;4.30;;;;;;;12.98;64.03;99906.22;4972261;28;21650;-82
2021/05/31 05:00:49;;;;;;;5.23;4.47;;;;;;;13.00;64.33;99920.28;4990153;23;20230;-81
2021/05/31 05:03:22;;;;;;;5.10;4.70;;;;;;;13.09;64.09;99918.91;4996065;28;20218;-80
2021/05/31 05:05:50;;;;;;;4.77;4.37;;;;;;;13.05;63.96;99901.59;5011672;28;20214;-81
2021/05/31 05:08:19;;;;;;;4.63;4.23;;;;;;;13.06;63.11;99905.91;5012507;28;20211;-80
2021/05/31 05:10:49;;;;;;;4.83;4.43;;;;;;;13.13;63.40;99913.91;4986179;28;20212;-81
2021/05/31 05:13:18;;;;;;;4.90;4.40;;;;;;;13.24;61.93;99899.69;4972247;28;20259;-81
2021/05/31 05:15:45;;;;;;;4.47;4.07;;;;;;;13.38;62.09;99903.81;4975027;28;20232;-80
2021/05/31 05:18:15;;;;;;;4.43;4.10;;;;;;;13.36;61.92;99907.75;4952952;28;20224;-79
2021/05/31 05:20:42;;;;;;;4.70;4.27;;;;;;;13.41;61.29;99905.19;4986347;28;20212;-80
2021/05/31 05:23:08;;;;;;;4.33;4.03;;;;;;;13.66;60.61;99903.97;5033437;23;20239;-80
2021/05/31 05:25:51;;;;;;;4.80;4.30;;;;;;;13.82;59.97;99902.44;5010036;28;20184;-80
2021/05/31 05:28:19;;;;;;;4.33;3.93;;;;;;;13.99;59.25;99913.34;5007798;28;20227;-81
2021/05/31 05:30:50;;;;;;;4.77;4.37;;;;;;;14.16;58.37;99906.19;5025565;23;20313;-82
2021/05/31 05:33:19;;;;;;;4.20;3.80;;;;;;;14.33;57.64;99906.25;5029019;23;20257;-80
2021/05/31 05:35:54;;;;;;;6.37;4.30;;;;;;;14.41;57.45;99905.94;5017073;28;20230;-82
2021/05/31 05:38:50;;;;;;;4.23;3.83;;;;;;;14.61;56.71;99900.94;5050069;28;20249;-80
2021/05/31 05:46:38;;;;;;;3.40;3.20;;;;;;;15.11;55.03;99908.41;5029148;28;20225;-83
2021/05/31 05:49:11;;;;;;;3.60;3.30;;;;;;;15.20;53.85;99904.25;5029999;28;20227;-80
2021/05/31 05:51:38;;;;;;;4.43;3.30;;;;;;;15.22;52.64;99904.78;5037092;28;20265;-80
2021/05/31 05:54:06;;;;;;;3.50;3.20;;;;;;;15.19;53.38;99910.69;5007404;28;20235;-80
2021/05/31 05:56:37;;;;;;;3.90;3.37;;;;;;;15.05;53.99;99915.56;5011063;28;20227;-80
2021/05/31 05:59:05;;;;;;;3.63;3.27;;;;;;;15.12;53.32;99908.13;5011829;28;20235;-81
2021/05/31 06:01:33;;;;;;;3.40;3.10;;;;;;;15.28;52.89;99907.34;4997308;28;20219;-80
2021/05/31 06:03:59;;;;;;;3.80;3.40;;;;;;;15.22;53.25;99912.91;5046951;28;20499;-80
2021/05/31 06:06:27;;;;;;;4.17;3.77;;;;;;;15.33;53.24;99920.94;5043038;28;20626;-82
2021/05/31 06:08:54;;;;;;;5.43;3.50;;;;;;;15.49;52.24;99924.72;5006721;28;20235;-80
2021/05/31 06:11:24;;;;;;;3.63;3.33;;;;;;;15.53;50.92;99925.91;5026058;28;20522;-80
2021/05/31 06:13:53;;;;;;;4.00;3.40;;;;;;;15.67;51.45;99905.63;5048312;28;20207;-80
2021/05/31 06:16:20;;;;;;;3.63;3.13;;;;;;;15.63;50.62;99938.78;5028332;28;20233;-80
2021/05/31 06:18:47;;;;;;;3.90;3.50;;;;;;;15.61;50.91;99919.28;5047199;28;20540;-82
2021/05/31 06:21:16;;;;;;;4.57;3.23;;;;;;;15.68;51.02;99925.31;5013081;28;20234;-80
2021/05/31 06:23:46;;;;;;;3.50;3.20;;;;;;;15.50;50.51;99917.44;5026878;28;20235;-81
2021/05/31 06:26:13;;;;;;;4.47;3.53;;;;;;;15.86;50.79;99919.69;5026918;28;20225;-80
2021/05/31 06:28:40;;;;;;;4.00;3.60;;;;;;;15.85;50.89;99915.34;5028775;28;20587;-82
2021/05/31 06:31:11;;;;;;;3.30;3.00;;;;;;;15.89;49.89;99913.78;5049193;28;20215;-80
2021/05/31 06:33:38;;;;;;;3.47;3.20;;;;;;;16.16;49.75;99913.91;5023877;28;20290;-79
2021/05/31 06:36:09;;;;;;;3.67;3.37;;;;;;;16.07;49.55;99907.28;5003874;28;20210;-80
2021/05/31 06:38:43;;;;;;;4.23;3.20;;;;;;;16.20;50.11;99904.22;5056485;23;20247;-80
2021/05/31 06:41:24;;;;;;;4.00;3.63;;;;;;;16.33;49.50;99903.84;5033958;28;20179;-81
2021/05/31 06:44:15;;;;;;;3.93;3.20;;;;;;;16.27;49.69;99907.56;5021371;28;20223;-80
2021/05/31 06:46:47;;;;;;;3.93;3.50;;;;;;;16.23;49.30;99911.84;5025090;28;20231;-81
2021/05/31 06:49:15;;;;;;;3.50;3.20;;;;;;;16.44;48.89;99904.81;5040852;28;20254;-84
2021/05/31 06:51:45;;;;;;;3.53;3.20;;;;;;;16.66;48.74;99908.34;5018396;28;20226;-82
2021/05/31 06:54:12;;;;;;;3.83;3.30;;;;;;;16.58;48.49;99901.50;4981601;28;20255;-86
2021/05/31 06:56:39;;;;;;;3.60;3.30;;;;;;;16.68;48.91;99914.34;4981643;28;20225;-83
2021/05/31 06:59:07;;;;;;;4.83;3.60;;;;;;;16.47;48.71;99904.31;5005154;28;20221;-84
2021/05/31 07:01:34;;;;;;;3.83;3.47;;;;;;;16.68;48.81;99898.13;4981835;28;20649;-87
2021/05/31 07:04:00;;;;;;;3.80;3.50;;;;;;;16.51;48.06;99876.53;5003535;28;20280;-87
2021/05/31 07:06:28;;;;;;;3.77;3.43;;;;;;;16.62;48.90;99891.81;5015678;28;20647;-87
2021/05/31 07:08:55;;;;;;;4.27;3.60;;;;;;;16.80;48.58;99885.25;5018421;28;20698;-88
2021/05/31 07:11:23;;;;;;;4.00;3.70;;;;;;;17.00;48.13;99895.47;5021229;28;20599;-87
2021/05/31 07:13:51;;;;;;;4.13;3.73;;;;;;;16.89;46.99;99888.34;5021690;28;20639;-80
2021/05/31 07:16:18;;;;;;;3.47;3.17;;;;;;;16.72;48.41;99891.13;5005536;28;20246;-81
2021/05/31 07:18:45;;;;;;;4.00;3.60;;;;;;;16.55;49.22;99896.59;5014192;28;20243;-79
2021/05/31 07:21:12;;;;;;;3.70;3.40;;;;;;;16.51;48.69;99889.22;5022850;28;20236;-86
2021/05/31 07:23:40;;;;;;;3.63;3.33;;;;;;;16.03;49.79;99901.56;4998891;28;20217;-79
2021/05/31 07:26:07;;;;;;;4.23;3.83;;;;;;;16.09;49.77;99887.06;5032281;28;20235;-79
2021/05/31 07:28:54;;;;;;;3.80;3.50;;;;;;;16.50;49.27;99895.69;5042301;28;20204;-79
2021/05/31 07:31:23;;;;;;;4.00;3.60;;;;;;;16.53;48.87;99887.06;5049038;28;20336;-85
2021/05/31 07:33:50;;;;;;;4.10;3.73;;;;;;;16.55;49.31;99877.66;5010262;28;20308;-81
2021/05/31 07:36:16;;;;;;;5.77;3.60;;;;;;;16.57;49.30;99880.91;4984750;28;20224;-86
2021/05/31 07:38:43;;;;;;;3.93;3.63;;;;;;;16.50;50.07;99888.41;5012341;28;20627;-85
2021/05/31 07:41:13;;;;;;;4.97;3.90;;;;;;;16.59;49.85;99881.50;5038703;28;20290;-80
2021/05/31 07:43:40;;;;;;;3.83;3.53;;;;;;;16.85;49.26;99893.44;4994366;28;20229;-82
2021/05/31 07:46:07;;;;;;;4.60;4.10;;;;;;;16.84;49.54;99886.41;5000429;28;20612;-83
2021/05/31 07:48:33;;;;;;;4.00;3.60;;;;;;;17.18;48.25;99879.69;5026717;28;20239;-85
2021/05/31 07:51:34;;;;;;;4.20;3.77;;;;;;;17.11;47.96;99883.69;5004254;28;20235;-85
2021/05/31 07:53:56;;;;;;;5.97;3.80;;;;;;;17.12;49.06;99888.03;4995942;28;20233;-80
2021/05/31 07:56:26;;;;;;;3.93;3.60;;;;;;;16.96;49.19;99873.53;5000315;28;20256;-84
2021/05/31 07:58:56;;;;;;;3.87;3.57;;;;;;;17.32;48.56;99890.09;5010463;28;20226;-78
2021/05/31 08:01:24;;;;;;;4.13;3.30;;;;;;;17.53;46.80;99878.38;5019722;28;20299;-79
2021/05/31 08:03:51;;;;;;;4.83;3.80;;;;;;;17.52;47.03;99866.72;5035836;28;20237;-77
2021/05/31 08:06:18;;;;;;;5.67;3.73;;;;;;;17.72;46.90;99876.94;5019341;28;20328;-86
2021/05/31 08:08:44;;;;;;;4.23;3.00;;;;;;;17.83;46.78;99869.69;5020133;28;20261;-80
2021/05/31 08:11:12;;;;;;;3.67;3.20;;;;;;;17.87;44.23;99868.09;5003212;28;20240;-83
2021/05/31 08:13:39;;;;;;;3.33;3.03;;;;;;;18.03;44.56;99867.91;5012393;28;20338;-78
2021/05/31 08:16:07;;;;;;;4.27;3.03;;;;;;;18.20;44.29;99872.34;4982728;28;20218;-78
2021/05/31 08:18:34;;;;;;;3.17;2.97;;;;;;;18.09;44.29;99852.50;4987992;28;20313;-86
2021/05/31 08:21:02;;;;;;;4.60;3.00;;;;;;;18.26;44.05;99858.53;5020089;28;20279;-86
2021/05/31 08:23:30;;;;;;;3.80;3.37;;;;;;;18.44;43.55;99870.81;5000063;28;20321;-83
2021/05/31 08:25:57;;;;;;;4.00;3.60;;;;;;;18.20;43.74;99856.06;4983799;28;20227;-78
2021/05/31 08:28:24;;;;;;;3.80;3.47;;;;;;;18.31;44.27;99861.28;4984802;28;20314;-83
2021/05/31 08:30:51;;;;;;;3.60;3.27;;;;;;;18.13;44.09;99853.59;5019444;28;20230;-85
2021/05/31 08:33:18;;;;;;;3.97;3.43;;;;;;;18.32;44.18;99853.97;5019224;28;20680;-87
2021/05/31 08:35:46;;;;;;;5.37;4.00;;;;;;;18.50;44.64;99850.78;4983474;28;20241;-86
2021/05/31 08:38:13;;;;;;;3.97;3.57;;;;;;;18.74;43.69;99860.13;4999470;28;20258;-82
2021/05/31 08:40:40;;;;;;;6.43;3.70;;;;;;;19.20;42.44;99844.72;5018582;28;20226;-85
2021/05/31 08:43:06;;;;;;;4.10;3.40;;;;;;;19.27;42.55;99842.53;5003446;28;20253;-79
2021/05/31 08:45:37;;;;;;;8.20;3.63;;;;;;;19.73;42.26;99848.81;5002220;28;20241;-87
2021/05/31 08:48:07;;;;;;;4.57;3.13;;;;;;;20.05;41.03;99839.50;4981380;28;20254;-87
2021/05/31 08:50:35;;;;;;;3.53;3.10;;;;;;;20.15;40.77;99856.59;5014427;28;20226;-86
2021/05/31 08:53:03;;;;;;;3.23;2.90;;;;;;;19.83;41.00;99845.25;5002643;28;20322;-80
2021/05/31 08:55:30;;;;;;;3.20;2.93;;;;;;;19.33;41.19;99840.63;5015961;28;20238;-86
2021/05/31 08:57:57;;;;;;;3.57;3.10;;;;;;;19.52;41.51;99839.03;5014460;28;20257;-84
2021/05/31 09:00:30;;;;;;;5.83;3.30;;;;;;;19.54;41.93;99841.50;5002516;28;20245;-85
2021/05/31 09:03:05;;;;;;;3.80;3.20;;;;;;;19.64;41.19;99839.56;5018912;28;20229;-84
2021/05/31 09:05:38;;;;;;;3.03;2.80;;;;;;;19.74;39.65;99844.97;4999645;28;20704;-88
2021/05/31 09:08:08;;;;;;;5.53;2.87;;;;;;;19.33;40.88;99830.59;5017298;28;20233;-86
2021/05/31 09:10:45;;;;;;;3.40;2.90;;;;;;;19.20;40.20;99844.72;5022097;28;20555;-80
2021/05/31 09:13:25;;;;;;;3.50;2.90;;;;;;;19.58;39.72;99831.69;5031617;28;20245;-84
2021/05/31 09:16:03;;;;;;;3.03;2.80;;;;;;;20.12;38.78;99838.09;5019380;28;20280;-87
2021/05/31 09:18:30;;;;;;;3.20;2.90;;;;;;;20.47;37.45;99829.03;5018977;28;20275;-86
2021/05/31 09:20:57;;;;;;;3.30;3.00;;;;;;;20.41;36.73;99813.00;5019114;28;20234;-80
2021/05/31 09:23:35;;;;;;;3.30;2.77;;;;;;;20.69;36.47;99823.19;5018561;28;20980;-87
2021/05/31 09:26:03;;;;;;;2.80;2.40;;;;;;;20.53;37.54;99832.53;5001696;28;20233;-84
2021/05/31 09:28:30;;;;;;;3.23;2.40;;;;;;;20.40;36.90;99825.78;5018733;28;20314;-80
2021/05/31 09:30:58;;;;;;;3.77;2.70;;;;;;;20.15;38.17;99820.44;4987744;28;20311;-84
2021/05/31 09:33:24;;;;;;;2.73;2.53;;;;;;;20.09;36.32;99807.94;4982925;28;20277;-80
2021/05/31 09:35:51;;;;;;;4.73;2.70;;;;;;;20.20;37.10;99813.03;5018517;28;20264;-88
2021/05/31 09:38:18;;;;;;;3.67;2.60;;;;;;;20.95;35.84;99821.13;5017973;28;20272;-83
2021/05/31 09:40:53;;;;;;;3.27;2.50;;;;;;;20.86;36.48;99810.00;5018283;28;20225;-81
2021/05/31 09:43:22;;;;;;;4.23;2.70;;;;;;;20.70;36.28;99811.22;5018388;28;20225;-80
2021/05/31 09:45:50;;;;;;;3.97;2.60;;;;;;;20.65;36.17;99813.97;5006806;28;20284;-82
2021/05/31 09:48:17;;;;;;;4.23;2.57;;;;;;;20.76;36.31;99801.09;4981221;28;20242;-81
2021/05/31 09:51:00;;;;;;;5.00;2.87;;;;;;;20.49;37.52;99802.31;4988787;28;20584;-84
2021/05/31 09:53:35;;;;;;;3.60;2.60;;;;;;;21.01;35.21;99798.19;5000976;28;20656;-80
2021/05/31 09:56:23;;;;;;;3.87;2.10;;;;;;;21.49;34.62;99789.09;4998051;28;20233;-80
2021/05/31 09:59:02;;;;;;;3.90;2.77;;;;;;;21.34;34.30;99791.13;5015685;28;20245;-85
2021/05/31 10:01:33;;;;;;;3.13;2.40;;;;;;;21.64;35.88;99773.69;4997611;28;20226;-84
2021/05/31 10:06:52;;;;;;;2.90;2.47;;;;;;;21.33;33.80;99779.44;4987744;28;20230;-80
2021/05/31 10:09:19;;;;;;;3.87;2.40;;;;;;;21.41;34.41;99783.47;4998015;28;20712;-86
2021/05/31 10:11:46;;;;;;;3.87;2.40;;;;;;;21.53;34.34;99786.59;4996868;28;20292;-82
2021/05/31 10:14:15;;;;;;;3.83;2.50;;;;;;;20.86;36.04;99782.78;5001162;28;20254;-88
2021/05/31 10:16:43;;;;;;;2.50;2.30;;;;;;;21.17;35.64;99777.13;4986919;28;20305;-80
2021/05/31 10:19:10;;;;;;;4.33;2.70;;;;;;;20.92;35.54;99791.72;4982071;28;20226;-86
2021/05/31 10:21:37;;;;;;;3.27;2.93;;;;;;;21.28;35.44;99781.38;5011317;28;20226;-86
2021/05/31 10:24:04;;;;;;;3.50;2.93;;;;;;;20.94;35.72;99774.03;5014530;28;20641;-85
2021/05/31 10:26:32;;;;;;;4.20;2.77;;;;;;;21.99;34.60;99769.78;4993299;28;20277;-85
2021/05/31 10:29:00;;;;;;;2.70;2.50;;;;;;;22.15;34.41;99777.50;5001476;28;20234;-85
2021/05/31 10:31:27;;;;;;;3.67;2.57;;;;;;;21.78;34.00;99775.44;4991421;28;20226;-81
2021/05/31 10:33:59;;;;;;;5.00;2.90;;;;;;;21.55;34.91;99770.78;4997985;28;20236;-86
2021/05/31 10:36:31;;;;;;;4.30;2.87;;;;;;;21.51;34.85;99773.25;5006209;28;20230;-84
2021/05/31 10:39:04;;;;;;;3.93;2.43;;;;;;;21.56;35.45;99766.16;5001314;28;20234;-87
2021/05/31 10:41:31;;;;;;;7.80;2.70;;;;;;;21.41;35.17;99759.75;5025601;28;20233;-84
2021/05/31 10:43:59;;;;;;;5.87;2.70;;;;;;;21.73;34.15;99763.78;4981466;28;20256;-86
2021/05/31 10:46:28;;;;;;;4.47;2.63;;;;;;;21.58;35.43;99753.84;4989450;28;20280;-85
2021/05/31 10:48:57;;;;;;;2.83;2.63;;;;;;;21.74;35.22;99738.94;5001288;28;20225;-84
2021/05/31 10:51:26;;;;;;;5.30;2.80;;;;;;;21.51;35.19;99750.63;4988442;28;20256;-81
2021/05/31 10:53:53;;;;;;;2.67;2.47;;;;;;;21.29;35.38;99756.56;5001393;28;20234;-85
2021/05/31 10:56:24;;;;;;;3.13;2.60;;;;;;;21.41;34.83;99754.28;5017108;28;20230;-86
2021/05/31 10:58:56;;;;;;;3.27;2.60;;;;;;;21.27;34.45;99744.34;5033566;28;20241;-86
2021/05/31 11:01:26;;;;;;;9.43;2.90;;;;;;;20.82;36.65;99749.03;4995354;28;20215;-84
2021/05/31 11:04:06;;;;;;;8.60;2.80;;;;;;;20.42;37.49;99747.41;5015244;28;20326;-86
2021/05/31 11:06:40;;;;;;;4.33;3.10;;;;;;;20.03;38.43;99746.47;4998644;28;20226;-87
2021/05/31 11:09:15;;;;;;;3.17;2.37;;;;;;;20.32;38.74;99752.91;4981429;28;20231;-87
2021/05/31 11:11:52;;;;;;;4.13;2.60;;;;;;;20.25;38.01;99746.13;4988595;28;20222;-87
2021/05/31 11:14:33;;;;;;;2.90;2.57;;;;;;;20.23;38.06;99740.97;5016393;28;20230;-87
2021/05/31 11:17:03;;;;;;;4.53;2.30;;;;;;;20.48;38.07;99729.16;5008857;28;20234;-85
2021/05/31 11:19:31;;;;;;;5.33;2.73;;;;;;;20.46;37.96;99715.00;4981419;28;20227;-86
2021/05/31 11:21:57;;;;;;;7.07;2.50;;;;;;;20.64;36.10;99742.38;5004937;28;20550;-87
2021/05/31 11:24:24;;;;;;;5.50;2.30;;;;;;;20.77;34.16;99715.59;5017045;28;20250;-83
2021/05/31 11:26:51;;;;;;;3.27;2.40;;;;;;;21.05;34.53;99721.06;5028367;28;20223;-86
2021/05/31 11:29:18;;;;;;;2.53;2.27;;;;;;;21.39;34.79;99712.06;5013591;28;20315;-80
2021/05/31 11:31:45;;;;;;;4.50;2.37;;;;;;;22.05;34.40;99720.31;5019388;28;20515;-86
2021/05/31 11:34:13;;;;;;;2.50;2.30;;;;;;;22.55;33.65;99715.25;5016602;28;20230;-80
2021/05/31 11:36:42;;;;;;;6.27;2.40;;;;;;;22.42;32.23;99721.44;5031147;28;20217;-87
2021/05/31 11:39:18;;;;;;;7.77;2.67;;;;;;;22.49;32.35;99709.03;5013492;28;20320;-81
2021/05/31 11:41:47;;;;;;;3.97;2.50;;;;;;;22.05;32.59;99697.69;5000095;28;20224;-85
2021/05/31 11:44:15;;;;;;;4.00;2.40;;;;;;;22.28;32.09;99711.28;5033200;28;20242;-87
2021/05/31 11:46:51;;;;;;;4.30;2.33;;;;;;;22.11;32.31;99696.53;5014644;28;20233;-86
2021/05/31 11:49:19;;;;;;;3.57;2.17;;;;;;;21.52;34.67;99712.19;4983967;28;20240;-82
2021/05/31 11:52:07;;;;;;;2.57;2.30;;;;;;;20.53;35.10;99718.22;5003731;28;20215;-83
2021/05/31 11:54:35;;;;;;;5.80;2.30;;;;;;;20.01;35.52;99699.72;5020384;28;20590;-83
2021/05/31 11:57:07;;;;;;;6.10;2.37;;;;;;;20.03;38.08;99709.22;5003674;28;20247;-80
2021/05/31 11:59:36;;;;;;;8.47;2.70;;;;;;;19.94;39.14;99704.66;4984781;28;20569;-80
2021/05/31 12:02:10;;;;;;;4.60;2.50;;;;;;;20.36;38.24;99713.16;5004616;28;20220;-87
2021/05/31 12:04:37;;;;;;;10.13;3.00;;;;;;;20.49;37.26;99709.81;5036753;28;20233;-84
2021/05/31 12:07:05;;;;;;;4.50;2.40;;;;;;;20.70;34.71;99701.50;5017811;28;20631;-85